sensor_id;sensor_type;location;lat;lon;timestamp;temperature;humidity
11736;DHT22;5924;51.398;7.088;2022-10-16T00:01:10;13.00;99.90
11736;DHT22;5924;51.398;7.088;2022-10-16T00:03:37;13.00;99.90
11736;DHT22;5924;51.398;7.088;2022-10-16T00:06:03;13.00;99.90
11736;DHT22;5924;51.398;7.088;2022-10-16T00:08:29;12.90;99.90
11736;DHT22;5924;51.398;7.088;2022-10-16T00:11:10;13.00;99.90
11736;DHT22;5924;51.398;7.088;2022-10-16T00:13:38;13.00;99.90
11736;DHT22;5924;51.398;7.088;2022-10-16T00:16:04;13.00;99.90
11736;DHT22;5924;51.398;7.088;2022-10-16T00:18:30;13.00;99.90
11736;DHT22;5924;51.398;7.088;2022-10-16T00:21:02;13.10;99.90
11736;DHT22;5924;51.398;7.088;2022-10-16T00:23:28;13.10;99.90
11736;DHT22;5924;51.398;7.088;2022-10-16T00:26:00;13.10;99.90
11736;DHT22;5924;51.398;7.088;2022-10-16T00:28:26;13.10;99.90
11736;DHT22;5924;51.398;7.088;2022-10-16T00:30:52;15.00;99.90
11736;DHT22;5924;51.398;7.088;2022-10-16T00:33:18;13.20;99.90
11736;DHT22;5924;51.398;7.088;2022-10-16T00:35:44;13.30;99.90
11736;DHT22;5924;51.398;7.088;2022-10-16T00:38:10;13.30;99.90
11736;DHT22;5924;51.398;7.088;2022-10-16T00:40:35;13.30;99.90
11736;DHT22;5924;51.398;7.088;2022-10-16T00:43:02;13.30;99.90
11736;DHT22;5924;51.398;7.088;2022-10-16T00:45:28;13.30;99.90
11736;DHT22;5924;51.398;7.088;2022-10-16T00:47:55;13.30;99.90
11736;DHT22;5924;51.398;7.088;2022-10-16T00:50:30;13.40;99.90
11736;DHT22;5924;51.398;7.088;2022-10-16T00:52:58;13.40;99.90
11736;DHT22;5924;51.398;7.088;2022-10-16T00:55:25;13.40;99.90
11736;DHT22;5924;51.398;7.088;2022-10-16T00:57:51;13.70;99.90
11736;DHT22;5924;51.398;7.088;2022-10-16T01:00:23;13.40;99.90
11736;DHT22;5924;51.398;7.088;2022-10-16T01:02:57;13.30;99.90
11736;DHT22;5924;51.398;7.088;2022-10-16T01:05:29;13.30;99.90
11736;DHT22;5924;51.398;7.088;2022-10-16T01:10:35;13.20;99.90
11736;DHT22;5924;51.398;7.088;2022-10-16T01:13:18;13.20;99.90
11736;DHT22;5924;51.398;7.088;2022-10-16T01:16:12;13.30;99.90
11736;DHT22;5924;51.398;7.088;2022-10-16T01:18:55;13.30;99.90
11736;DHT22;5924;51.398;7.088;2022-10-16T01:21:28;13.30;99.90
11736;DHT22;5924;51.398;7.088;2022-10-16T01:29:49;13.20;99.90
11736;DHT22;5924;51.398;7.088;2022-10-16T01:40:19;13.00;99.90
11736;DHT22;5924;51.398;7.088;2022-10-16T01:42:51;13.60;99.90
11736;DHT22;5924;51.398;7.088;2022-10-16T01:45:19;13.00;99.90
11736;DHT22;5924;51.398;7.088;2022-10-16T01:47:46;12.10;99.90
11736;DHT22;5924;51.398;7.088;2022-10-16T01:50:15;12.90;99.90
11736;DHT22;5924;51.398;7.088;2022-10-16T01:52:45;12.90;99.90
11736;DHT22;5924;51.398;7.088;2022-10-16T01:55:17;15.20;99.90
11736;DHT22;5924;51.398;7.088;2022-10-16T01:57:46;12.90;99.90
11736;DHT22;5924;51.398;7.088;2022-10-16T02:00:14;12.90;99.90
11736;DHT22;5924;51.398;7.088;2022-10-16T02:02:45;13.00;99.90
11736;DHT22;5924;51.398;7.088;2022-10-16T02:05:22;13.00;99.90
11736;DHT22;5924;51.398;7.088;2022-10-16T02:07:49;13.10;99.90
11736;DHT22;5924;51.398;7.088;2022-10-16T02:10:16;13.10;99.90
11736;DHT22;5924;51.398;7.088;2022-10-16T02:12:45;13.10;99.90
11736;DHT22;5924;51.398;7.088;2022-10-16T02:15:13;13.20;99.90
11736;DHT22;5924;51.398;7.088;2022-10-16T02:17:39;13.20;99.90
11736;DHT22;5924;51.398;7.088;2022-10-16T02:20:05;13.20;99.90
11736;DHT22;5924;51.398;7.088;2022-10-16T02:22:36;13.20;99.90
11736;DHT22;5924;51.398;7.088;2022-10-16T02:25:15;13.10;99.90
11736;DHT22;5924;51.398;7.088;2022-10-16T02:30:49;13.00;99.90
11736;DHT22;5924;51.398;7.088;2022-10-16T02:33:17;13.00;99.90
11736;DHT22;5924;51.398;7.088;2022-10-16T02:35:44;13.00;99.90
11736;DHT22;5924;51.398;7.088;2022-10-16T02:38:12;11.40;99.90
11736;DHT22;5924;51.398;7.088;2022-10-16T02:40:39;13.10;99.90
11736;DHT22;5924;51.398;7.088;2022-10-16T02:43:05;13.20;99.90
11736;DHT22;5924;51.398;7.088;2022-10-16T02:45:31;13.20;99.90
11736;DHT22;5924;51.398;7.088;2022-10-16T02:47:56;13.30;99.90
11736;DHT22;5924;51.398;7.088;2022-10-16T02:50:22;13.30;99.90
11736;DHT22;5924;51.398;7.088;2022-10-16T02:52:49;13.40;99.90
11736;DHT22;5924;51.398;7.088;2022-10-16T02:55:15;13.40;99.90
11736;DHT22;5924;51.398;7.088;2022-10-16T02:57:40;13.50;99.90
11736;DHT22;5924;51.398;7.088;2022-10-16T03:00:08;13.50;99.90
11736;DHT22;5924;51.398;7.088;2022-10-16T03:02:35;13.50;99.90
11736;DHT22;5924;51.398;7.088;2022-10-16T03:05:00;13.60;99.90
11736;DHT22;5924;51.398;7.088;2022-10-16T03:07:26;13.60;99.90
11736;DHT22;5924;51.398;7.088;2022-10-16T03:09:52;13.60;99.90
11736;DHT22;5924;51.398;7.088;2022-10-16T03:12:17;13.50;99.90
11736;DHT22;5924;51.398;7.088;2022-10-16T03:14:43;13.50;99.90
11736;DHT22;5924;51.398;7.088;2022-10-16T03:17:08;13.50;99.90
11736;DHT22;5924;51.398;7.088;2022-10-16T03:19:34;13.40;99.90
11736;DHT22;5924;51.398;7.088;2022-10-16T03:22:01;13.40;99.90
11736;DHT22;5924;51.398;7.088;2022-10-16T03:24:26;13.40;99.90
11736;DHT22;5924;51.398;7.088;2022-10-16T03:26:52;13.40;99.90
11736;DHT22;5924;51.398;7.088;2022-10-16T03:29:17;13.30;99.90
11736;DHT22;5924;51.398;7.088;2022-10-16T03:31:43;13.40;99.90
11736;DHT22;5924;51.398;7.088;2022-10-16T03:34:09;13.40;99.90
11736;DHT22;5924;51.398;7.088;2022-10-16T03:36:34;13.30;99.90
11736;DHT22;5924;51.398;7.088;2022-10-16T03:39:00;13.30;99.90
11736;DHT22;5924;51.398;7.088;2022-10-16T03:41:26;13.30;99.90
11736;DHT22;5924;51.398;7.088;2022-10-16T03:43:51;13.30;99.90
11736;DHT22;5924;51.398;7.088;2022-10-16T03:46:17;13.30;99.90
11736;DHT22;5924;51.398;7.088;2022-10-16T03:48:42;13.20;99.90
11736;DHT22;5924;51.398;7.088;2022-10-16T03:51:08;13.30;99.80
11736;DHT22;5924;51.398;7.088;2022-10-16T03:53:34;13.50;99.90
11736;DHT22;5924;51.398;7.088;2022-10-16T03:55:59;13.10;99.70
11736;DHT22;5924;51.398;7.088;2022-10-16T03:58:25;13.20;99.90
11736;DHT22;5924;51.398;7.088;2022-10-16T04:00:51;13.10;99.90
11736;DHT22;5924;51.398;7.088;2022-10-16T04:03:17;13.00;99.90
11736;DHT22;5924;51.398;7.088;2022-10-16T04:05:44;12.90;99.90
11736;DHT22;5924;51.398;7.088;2022-10-16T04:08:10;12.90;99.90
11736;DHT22;5924;51.398;7.088;2022-10-16T04:10:36;12.90;99.90
11736;DHT22;5924;51.398;7.088;2022-10-16T04:13:01;12.80;99.90
11736;DHT22;5924;51.398;7.088;2022-10-16T04:15:27;12.80;99.90
11736;DHT22;5924;51.398;7.088;2022-10-16T04:17:52;15.50;99.90
11736;DHT22;5924;51.398;7.088;2022-10-16T04:20:18;12.80;99.90
11736;DHT22;5924;51.398;7.088;2022-10-16T04:22:44;12.80;99.90
11736;DHT22;5924;51.398;7.088;2022-10-16T04:25:10;12.80;99.90
11736;DHT22;5924;51.398;7.088;2022-10-16T04:27:37;11.70;99.90
11736;DHT22;5924;51.398;7.088;2022-10-16T04:30:03;12.80;99.90
11736;DHT22;5924;51.398;7.088;2022-10-16T04:32:30;12.80;99.90
11736;DHT22;5924;51.398;7.088;2022-10-16T04:34:55;12.70;99.90
11736;DHT22;5924;51.398;7.088;2022-10-16T04:37:27;12.70;99.90
11736;DHT22;5924;51.398;7.088;2022-10-16T04:39:53;12.80;99.90
11736;DHT22;5924;51.398;7.088;2022-10-16T04:42:20;12.80;99.90
11736;DHT22;5924;51.398;7.088;2022-10-16T04:44:45;12.70;99.90
11736;DHT22;5924;51.398;7.088;2022-10-16T04:47:12;12.70;99.90
11736;DHT22;5924;51.398;7.088;2022-10-16T04:49:37;12.70;99.90
11736;DHT22;5924;51.398;7.088;2022-10-16T04:52:03;12.70;99.90
11736;DHT22;5924;51.398;7.088;2022-10-16T04:54:29;12.70;99.90
11736;DHT22;5924;51.398;7.088;2022-10-16T04:56:55;12.70;99.90
11736;DHT22;5924;51.398;7.088;2022-10-16T04:59:20;12.70;99.90
11736;DHT22;5924;51.398;7.088;2022-10-16T05:01:47;12.70;99.90
11736;DHT22;5924;51.398;7.088;2022-10-16T05:04:13;15.10;99.90
11736;DHT22;5924;51.398;7.088;2022-10-16T05:06:40;12.70;99.90
11736;DHT22;5924;51.398;7.088;2022-10-16T05:09:06;12.80;99.90
11736;DHT22;5924;51.398;7.088;2022-10-16T05:11:32;12.80;99.90
11736;DHT22;5924;51.398;7.088;2022-10-16T05:13:57;12.80;99.90
11736;DHT22;5924;51.398;7.088;2022-10-16T05:16:23;12.80;99.90
11736;DHT22;5924;51.398;7.088;2022-10-16T05:18:49;12.90;99.90
11736;DHT22;5924;51.398;7.088;2022-10-16T05:21:14;12.90;99.90
11736;DHT22;5924;51.398;7.088;2022-10-16T05:23:40;13.70;99.90
11736;DHT22;5924;51.398;7.088;2022-10-16T05:26:06;12.80;99.90
11736;DHT22;5924;51.398;7.088;2022-10-16T05:28:31;12.80;99.90
11736;DHT22;5924;51.398;7.088;2022-10-16T05:30:57;12.80;99.90
11736;DHT22;5924;51.398;7.088;2022-10-16T05:33:25;12.70;99.90
11736;DHT22;5924;51.398;7.088;2022-10-16T05:35:51;12.70;99.90
11736;DHT22;5924;51.398;7.088;2022-10-16T05:38:17;12.70;99.90
11736;DHT22;5924;51.398;7.088;2022-10-16T05:40:43;12.70;99.90
11736;DHT22;5924;51.398;7.088;2022-10-16T05:43:15;12.70;99.90
11736;DHT22;5924;51.398;7.088;2022-10-16T05:45:41;15.70;99.90
11736;DHT22;5924;51.398;7.088;2022-10-16T05:48:06;12.70;99.90
11736;DHT22;5924;51.398;7.088;2022-10-16T05:50:32;12.70;99.90
11736;DHT22;5924;51.398;7.088;2022-10-16T05:52:57;12.70;99.90
11736;DHT22;5924;51.398;7.088;2022-10-16T05:55:23;12.70;99.90
11736;DHT22;5924;51.398;7.088;2022-10-16T05:57:48;12.70;99.90
11736;DHT22;5924;51.398;7.088;2022-10-16T06:00:14;12.70;99.90
11736;DHT22;5924;51.398;7.088;2022-10-16T06:02:40;12.80;99.90
11736;DHT22;5924;51.398;7.088;2022-10-16T06:05:05;12.80;99.90
11736;DHT22;5924;51.398;7.088;2022-10-16T06:07:34;12.70;99.90
11736;DHT22;5924;51.398;7.088;2022-10-16T06:10:00;12.70;99.90
11736;DHT22;5924;51.398;7.088;2022-10-16T06:12:26;12.70;99.90
11736;DHT22;5924;51.398;7.088;2022-10-16T06:14:52;12.70;99.90
11736;DHT22;5924;51.398;7.088;2022-10-16T06:17:18;12.70;99.90
11736;DHT22;5924;51.398;7.088;2022-10-16T06:19:43;12.70;99.90
11736;DHT22;5924;51.398;7.088;2022-10-16T06:22:09;12.80;99.90
11736;DHT22;5924;51.398;7.088;2022-10-16T06:24:35;12.80;99.90
11736;DHT22;5924;51.398;7.088;2022-10-16T06:27:00;12.90;99.90
11736;DHT22;5924;51.398;7.088;2022-10-16T06:29:26;12.90;99.90
11736;DHT22;5924;51.398;7.088;2022-10-16T06:31:52;12.90;99.90
11736;DHT22;5924;51.398;7.088;2022-10-16T06:34:18;12.90;99.90
11736;DHT22;5924;51.398;7.088;2022-10-16T06:36:44;12.90;99.90
11736;DHT22;5924;51.398;7.088;2022-10-16T06:39:09;13.30;99.90
11736;DHT22;5924;51.398;7.088;2022-10-16T06:41:35;13.00;99.90
11736;DHT22;5924;51.398;7.088;2022-10-16T06:44:01;13.00;99.90
11736;DHT22;5924;51.398;7.088;2022-10-16T06:46:27;13.10;99.90
11736;DHT22;5924;51.398;7.088;2022-10-16T06:48:53;13.10;99.90
11736;DHT22;5924;51.398;7.088;2022-10-16T06:51:21;13.20;99.90
11736;DHT22;5924;51.398;7.088;2022-10-16T06:53:49;13.20;99.90
11736;DHT22;5924;51.398;7.088;2022-10-16T06:56:26;13.30;99.90
11736;DHT22;5924;51.398;7.088;2022-10-16T06:58:52;13.30;99.90
11736;DHT22;5924;51.398;7.088;2022-10-16T07:01:21;13.30;99.90
11736;DHT22;5924;51.398;7.088;2022-10-16T07:03:47;13.40;99.90
11736;DHT22;5924;51.398;7.088;2022-10-16T07:06:15;13.40;99.90
11736;DHT22;5924;51.398;7.088;2022-10-16T07:08:43;13.40;99.90
11736;DHT22;5924;51.398;7.088;2022-10-16T07:11:12;13.40;99.90
11736;DHT22;5924;51.398;7.088;2022-10-16T07:13:39;13.40;99.90
11736;DHT22;5924;51.398;7.088;2022-10-16T07:16:06;13.40;99.90
11736;DHT22;5924;51.398;7.088;2022-10-16T07:18:32;13.40;99.90
11736;DHT22;5924;51.398;7.088;2022-10-16T07:21:05;13.40;99.90
11736;DHT22;5924;51.398;7.088;2022-10-16T07:23:32;13.40;99.90
11736;DHT22;5924;51.398;7.088;2022-10-16T07:25:57;13.40;99.90
11736;DHT22;5924;51.398;7.088;2022-10-16T07:28:23;13.30;99.90
11736;DHT22;5924;51.398;7.088;2022-10-16T07:30:48;13.30;99.90
11736;DHT22;5924;51.398;7.088;2022-10-16T07:33:14;13.30;99.90
11736;DHT22;5924;51.398;7.088;2022-10-16T07:35:53;13.30;99.90
11736;DHT22;5924;51.398;7.088;2022-10-16T07:38:20;13.30;99.90
11736;DHT22;5924;51.398;7.088;2022-10-16T07:40:46;13.40;99.90
11736;DHT22;5924;51.398;7.088;2022-10-16T07:43:12;13.40;99.90
11736;DHT22;5924;51.398;7.088;2022-10-16T07:45:49;13.50;99.90
11736;DHT22;5924;51.398;7.088;2022-10-16T07:48:16;13.60;99.90
11736;DHT22;5924;51.398;7.088;2022-10-16T07:50:42;13.70;99.90
11736;DHT22;5924;51.398;7.088;2022-10-16T07:53:08;13.70;99.90
11736;DHT22;5924;51.398;7.088;2022-10-16T07:55:34;13.80;99.90
11736;DHT22;5924;51.398;7.088;2022-10-16T07:57:59;13.90;99.90
11736;DHT22;5924;51.398;7.088;2022-10-16T08:00:25;13.90;99.90
11736;DHT22;5924;51.398;7.088;2022-10-16T08:02:51;14.00;99.90
11736;DHT22;5924;51.398;7.088;2022-10-16T08:05:16;14.00;99.70
11736;DHT22;5924;51.398;7.088;2022-10-16T08:07:42;14.20;97.00
11736;DHT22;5924;51.398;7.088;2022-10-16T08:10:16;14.20;96.00
11736;DHT22;5924;51.398;7.088;2022-10-16T08:12:42;14.20;93.50
11736;DHT22;5924;51.398;7.088;2022-10-16T08:15:08;14.30;89.40
11736;DHT22;5924;51.398;7.088;2022-10-16T08:17:34;14.40;85.50
11736;DHT22;5924;51.398;7.088;2022-10-16T08:20:00;14.50;80.70
11736;DHT22;5924;51.398;7.088;2022-10-16T08:22:26;14.50;71.90
11736;DHT22;5924;51.398;7.088;2022-10-16T08:24:51;14.60;66.40
11736;DHT22;5924;51.398;7.088;2022-10-16T08:27:17;14.60;62.80
11736;DHT22;5924;51.398;7.088;2022-10-16T08:29:43;14.70;55.90
11736;DHT22;5924;51.398;7.088;2022-10-16T08:32:08;14.80;40.80
11736;DHT22;5924;51.398;7.088;2022-10-16T08:34:34;14.80;30.30
11736;DHT22;5924;51.398;7.088;2022-10-16T08:36:59;14.90;26.30
11736;DHT22;5924;51.398;7.088;2022-10-16T08:39:25;14.90;40.40
11736;DHT22;5924;51.398;7.088;2022-10-16T08:50:22;15.10;1.00
11736;DHT22;5924;51.398;7.088;2022-10-16T08:52:49;15.10;1.00
11736;DHT22;5924;51.398;7.088;2022-10-16T08:56:12;15.20;1.00
11736;DHT22;5924;51.398;7.088;2022-10-16T08:58:16;15.20;1.00
11736;DHT22;5924;51.398;7.088;2022-10-16T09:00:43;15.30;1.00
11736;DHT22;5924;51.398;7.088;2022-10-16T09:03:48;15.40;1.00
11736;DHT22;5924;51.398;7.088;2022-10-16T09:06:40;15.50;1.00
11736;DHT22;5924;51.398;7.088;2022-10-16T09:12:09;15.60;1.00
11736;DHT22;5924;51.398;7.088;2022-10-16T09:20:55;15.90;1.00
11736;DHT22;5924;51.398;7.088;2022-10-16T09:23:29;16.00;1.00
11736;DHT22;5924;51.398;7.088;2022-10-16T09:25:56;16.00;1.00
11736;DHT22;5924;51.398;7.088;2022-10-16T09:28:23;16.20;1.00
11736;DHT22;5924;51.398;7.088;2022-10-16T09:30:49;16.30;1.00
11736;DHT22;5924;51.398;7.088;2022-10-16T09:33:17;16.30;1.00
11736;DHT22;5924;51.398;7.088;2022-10-16T09:35:45;16.40;1.00
11736;DHT22;5924;51.398;7.088;2022-10-16T09:38:33;16.50;1.00
11736;DHT22;5924;51.398;7.088;2022-10-16T09:41:01;16.60;1.00
11736;DHT22;5924;51.398;7.088;2022-10-16T09:46:08;16.70;1.00
11736;DHT22;5924;51.398;7.088;2022-10-16T09:48:44;16.80;1.00
11736;DHT22;5924;51.398;7.088;2022-10-16T09:51:36;16.90;1.00
11736;DHT22;5924;51.398;7.088;2022-10-16T09:56:35;17.30;1.00
11736;DHT22;5924;51.398;7.088;2022-10-16T09:59:22;17.40;1.00
11736;DHT22;5924;51.398;7.088;2022-10-16T10:01:55;17.50;99.90
11736;DHT22;5924;51.398;7.088;2022-10-16T10:04:23;17.40;99.90
11736;DHT22;5924;51.398;7.088;2022-10-16T10:06:51;17.30;99.90
11736;DHT22;5924;51.398;7.088;2022-10-16T10:11:55;17.20;99.90
11736;DHT22;5924;51.398;7.088;2022-10-16T10:16:52;17.30;99.90
11736;DHT22;5924;51.398;7.088;2022-10-16T10:19:21;17.30;99.90
11736;DHT22;5924;51.398;7.088;2022-10-16T10:21:48;17.30;99.90
11736;DHT22;5924;51.398;7.088;2022-10-16T10:24:15;17.30;99.90
11736;DHT22;5924;51.398;7.088;2022-10-16T10:27:06;17.30;99.90
11736;DHT22;5924;51.398;7.088;2022-10-16T10:35:11;17.40;99.90
11736;DHT22;5924;51.398;7.088;2022-10-16T10:37:59;17.40;99.90
11736;DHT22;5924;51.398;7.088;2022-10-16T10:46:03;17.70;1.00
11736;DHT22;5924;51.398;7.088;2022-10-16T10:48:54;17.90;1.00
11736;DHT22;5924;51.398;7.088;2022-10-16T11:07:33;18.60;19.90
11736;DHT22;5924;51.398;7.088;2022-10-16T11:10:21;18.50;99.90
11736;DHT22;5924;51.398;7.088;2022-10-16T11:12:55;18.30;99.90
11736;DHT22;5924;51.398;7.088;2022-10-16T11:15:35;18.20;1.00
11736;DHT22;5924;51.398;7.088;2022-10-16T11:20:37;18.20;1.00
11736;DHT22;5924;51.398;7.088;2022-10-16T11:23:12;18.10;1.00
11736;DHT22;5924;51.398;7.088;2022-10-16T11:25:40;18.00;1.00
11736;DHT22;5924;51.398;7.088;2022-10-16T11:28:19;17.90;1.00
11736;DHT22;5924;51.398;7.088;2022-10-16T11:30:47;17.80;1.00
11736;DHT22;5924;51.398;7.088;2022-10-16T11:35:59;17.90;1.00
11736;DHT22;5924;51.398;7.088;2022-10-16T11:41:37;18.20;1.00
11736;DHT22;5924;51.398;7.088;2022-10-16T11:44:31;18.40;1.00
11736;DHT22;5924;51.398;7.088;2022-10-16T11:49:38;18.90;1.00
11736;DHT22;5924;51.398;7.088;2022-10-16T11:54:59;18.90;99.90
11736;DHT22;5924;51.398;7.088;2022-10-16T11:57:31;19.10;99.90
11736;DHT22;5924;51.398;7.088;2022-10-16T12:00:14;19.10;99.90
11736;DHT22;5924;51.398;7.088;2022-10-16T12:06:01;19.30;99.90
11736;DHT22;5924;51.398;7.088;2022-10-16T12:08:30;19.40;51.20
11736;DHT22;5924;51.398;7.088;2022-10-16T12:11:20;19.40;1.00
11736;DHT22;5924;51.398;7.088;2022-10-16T12:13:47;19.40;1.00
11736;DHT22;5924;51.398;7.088;2022-10-16T12:18:44;19.50;99.90
11736;DHT22;5924;51.398;7.088;2022-10-16T12:21:11;19.60;99.90
11736;DHT22;5924;51.398;7.088;2022-10-16T12:23:52;19.70;99.90
11736;DHT22;5924;51.398;7.088;2022-10-16T12:26:29;19.60;67.70
11736;DHT22;5924;51.398;7.088;2022-10-16T12:28:56;19.60;1.00
11736;DHT22;5924;51.398;7.088;2022-10-16T12:31:22;20.00;1.00
11736;DHT22;5924;51.398;7.088;2022-10-16T12:34:01;20.50;1.00
11736;DHT22;5924;51.398;7.088;2022-10-16T12:36:34;21.30;99.90
11736;DHT22;5924;51.398;7.088;2022-10-16T12:39:01;22.30;99.90
11736;DHT22;5924;51.398;7.088;2022-10-16T12:41:28;22.40;99.90
11736;DHT22;5924;51.398;7.088;2022-10-16T12:43:54;21.00;99.90
11736;DHT22;5924;51.398;7.088;2022-10-16T12:51:39;22.90;99.90
11736;DHT22;5924;51.398;7.088;2022-10-16T12:54:17;23.10;99.90
11736;DHT22;5924;51.398;7.088;2022-10-16T13:08:07;19.90;99.90
11736;DHT22;5924;51.398;7.088;2022-10-16T13:30:17;20.50;99.90
11736;DHT22;5924;51.398;7.088;2022-10-16T13:32:53;20.20;99.90
11736;DHT22;5924;51.398;7.088;2022-10-16T13:35:23;20.20;99.90
11736;DHT22;5924;51.398;7.088;2022-10-16T13:37:50;20.20;99.90
11736;DHT22;5924;51.398;7.088;2022-10-16T13:42:45;20.30;99.90
11736;DHT22;5924;51.398;7.088;2022-10-16T13:45:19;20.40;99.90
11736;DHT22;5924;51.398;7.088;2022-10-16T13:47:46;20.80;99.90
11736;DHT22;5924;51.398;7.088;2022-10-16T13:50:14;21.20;99.90
11736;DHT22;5924;51.398;7.088;2022-10-16T13:52:40;21.30;99.90
11736;DHT22;5924;51.398;7.088;2022-10-16T13:55:15;21.20;99.90
11736;DHT22;5924;51.398;7.088;2022-10-16T13:57:42;21.10;99.90
11736;DHT22;5924;51.398;7.088;2022-10-16T14:00:25;20.90;99.90
11736;DHT22;5924;51.398;7.088;2022-10-16T14:03:02;20.80;99.90
11736;DHT22;5924;51.398;7.088;2022-10-16T14:05:29;20.80;99.90
11736;DHT22;5924;51.398;7.088;2022-10-16T14:07:55;20.90;99.90
11736;DHT22;5924;51.398;7.088;2022-10-16T14:10:27;21.10;99.90
11736;DHT22;5924;51.398;7.088;2022-10-16T14:12:57;21.10;99.90
11736;DHT22;5924;51.398;7.088;2022-10-16T14:15:24;21.10;99.90
11736;DHT22;5924;51.398;7.088;2022-10-16T14:17:51;21.20;99.90
11736;DHT22;5924;51.398;7.088;2022-10-16T14:20:17;21.40;99.90
11736;DHT22;5924;51.398;7.088;2022-10-16T14:22:44;21.40;99.90
11736;DHT22;5924;51.398;7.088;2022-10-16T14:27:59;20.80;99.90
11736;DHT22;5924;51.398;7.088;2022-10-16T14:30:26;20.50;99.90
11736;DHT22;5924;51.398;7.088;2022-10-16T14:35:24;19.90;99.90
11736;DHT22;5924;51.398;7.088;2022-10-16T14:37:55;19.60;99.90
11736;DHT22;5924;51.398;7.088;2022-10-16T14:40:25;19.40;99.90
11736;DHT22;5924;51.398;7.088;2022-10-16T14:42:51;19.20;99.90
11736;DHT22;5924;51.398;7.088;2022-10-16T14:45:29;19.10;99.90
11736;DHT22;5924;51.398;7.088;2022-10-16T14:48:00;19.20;99.90
11736;DHT22;5924;51.398;7.088;2022-10-16T14:50:27;19.40;99.90
11736;DHT22;5924;51.398;7.088;2022-10-16T14:52:53;19.60;99.90
11736;DHT22;5924;51.398;7.088;2022-10-16T14:55:19;19.60;99.90
11736;DHT22;5924;51.398;7.088;2022-10-16T14:57:45;19.50;99.90
11736;DHT22;5924;51.398;7.088;2022-10-16T15:00:23;19.40;99.90
11736;DHT22;5924;51.398;7.088;2022-10-16T15:02:50;19.40;99.90
11736;DHT22;5924;51.398;7.088;2022-10-16T15:05:24;19.50;99.90
11736;DHT22;5924;51.398;7.088;2022-10-16T15:07:52;19.40;99.90
11736;DHT22;5924;51.398;7.088;2022-10-16T15:10:20;19.20;99.90
11736;DHT22;5924;51.398;7.088;2022-10-16T15:12:47;19.00;38.20
11736;DHT22;5924;51.398;7.088;2022-10-16T15:17:54;18.50;99.90
11736;DHT22;5924;51.398;7.088;2022-10-16T15:20:27;18.30;88.70
11736;DHT22;5924;51.398;7.088;2022-10-16T15:22:53;18.20;1.00
11736;DHT22;5924;51.398;7.088;2022-10-16T15:25:38;18.10;99.90
11736;DHT22;5924;51.398;7.088;2022-10-16T15:28:08;18.10;1.00
11736;DHT22;5924;51.398;7.088;2022-10-16T15:30:35;18.00;10.00
11736;DHT22;5924;51.398;7.088;2022-10-16T15:33:02;17.90;1.00
11736;DHT22;5924;51.398;7.088;2022-10-16T15:35:28;17.90;64.50
11736;DHT22;5924;51.398;7.088;2022-10-16T15:37:53;17.80;99.90
11736;DHT22;5924;51.398;7.088;2022-10-16T15:40:20;17.80;1.00
11736;DHT22;5924;51.398;7.088;2022-10-16T15:42:46;17.70;1.00
11736;DHT22;5924;51.398;7.088;2022-10-16T15:45:12;17.60;27.80
11736;DHT22;5924;51.398;7.088;2022-10-16T15:47:39;17.50;99.90
11736;DHT22;5924;51.398;7.088;2022-10-16T15:50:06;17.40;99.90
11736;DHT22;5924;51.398;7.088;2022-10-16T15:52:32;17.30;99.90
11736;DHT22;5924;51.398;7.088;2022-10-16T15:54:58;17.20;1.00
11736;DHT22;5924;51.398;7.088;2022-10-16T15:57:24;17.10;1.00
11736;DHT22;5924;51.398;7.088;2022-10-16T15:59:50;17.10;1.00
11736;DHT22;5924;51.398;7.088;2022-10-16T16:02:16;17.00;1.00
11736;DHT22;5924;51.398;7.088;2022-10-16T16:04:41;16.90;1.00
11736;DHT22;5924;51.398;7.088;2022-10-16T16:07:07;16.90;1.00
11736;DHT22;5924;51.398;7.088;2022-10-16T16:09:33;16.80;1.00
11736;DHT22;5924;51.398;7.088;2022-10-16T16:11:58;16.70;1.00
11736;DHT22;5924;51.398;7.088;2022-10-16T16:14:27;16.60;1.00
11736;DHT22;5924;51.398;7.088;2022-10-16T16:16:54;16.50;1.00
11736;DHT22;5924;51.398;7.088;2022-10-16T16:19:20;16.50;1.00
11736;DHT22;5924;51.398;7.088;2022-10-16T16:21:47;16.40;1.00
11736;DHT22;5924;51.398;7.088;2022-10-16T16:24:12;16.40;1.00
11736;DHT22;5924;51.398;7.088;2022-10-16T16:26:38;16.30;1.00
11736;DHT22;5924;51.398;7.088;2022-10-16T16:29:11;16.20;1.00
11736;DHT22;5924;51.398;7.088;2022-10-16T16:31:37;16.10;1.00
11736;DHT22;5924;51.398;7.088;2022-10-16T16:34:03;16.10;1.00
11736;DHT22;5924;51.398;7.088;2022-10-16T16:36:29;16.00;1.00
11736;DHT22;5924;51.398;7.088;2022-10-16T16:38:54;15.90;1.00
11736;DHT22;5924;51.398;7.088;2022-10-16T16:41:26;15.90;1.00
11736;DHT22;5924;51.398;7.088;2022-10-16T16:43:53;15.80;1.00
11736;DHT22;5924;51.398;7.088;2022-10-16T16:46:20;15.70;1.00
11736;DHT22;5924;51.398;7.088;2022-10-16T16:48:47;15.70;1.00
11736;DHT22;5924;51.398;7.088;2022-10-16T16:51:16;15.60;1.00
11736;DHT22;5924;51.398;7.088;2022-10-16T16:53:48;15.50;1.00
11736;DHT22;5924;51.398;7.088;2022-10-16T16:56:14;15.50;1.00
11736;DHT22;5924;51.398;7.088;2022-10-16T16:58:40;15.40;1.00
11736;DHT22;5924;51.398;7.088;2022-10-16T17:01:06;15.40;1.00
11736;DHT22;5924;51.398;7.088;2022-10-16T17:03:35;15.30;1.00
11736;DHT22;5924;51.398;7.088;2022-10-16T17:08:28;15.20;5.80
11736;DHT22;5924;51.398;7.088;2022-10-16T17:10:55;15.20;11.60
11736;DHT22;5924;51.398;7.088;2022-10-16T17:13:27;15.20;18.10
11736;DHT22;5924;51.398;7.088;2022-10-16T17:15:53;15.10;24.80
11736;DHT22;5924;51.398;7.088;2022-10-16T17:18:21;15.10;30.50
11736;DHT22;5924;51.398;7.088;2022-10-16T17:20:47;16.80;40.10
11736;DHT22;5924;51.398;7.088;2022-10-16T17:23:14;15.00;47.80
11736;DHT22;5924;51.398;7.088;2022-10-16T17:25:40;15.00;56.30
11736;DHT22;5924;51.398;7.088;2022-10-16T17:28:07;15.00;64.50
11736;DHT22;5924;51.398;7.088;2022-10-16T17:30:34;14.90;71.50
11736;DHT22;5924;51.398;7.088;2022-10-16T17:33:00;14.90;77.20
11736;DHT22;5924;51.398;7.088;2022-10-16T17:35:26;14.80;81.90
11736;DHT22;5924;51.398;7.088;2022-10-16T17:37:52;14.80;84.80
11736;DHT22;5924;51.398;7.088;2022-10-16T17:40:18;14.80;87.10
11736;DHT22;5924;51.398;7.088;2022-10-16T17:42:44;14.80;88.90
11736;DHT22;5924;51.398;7.088;2022-10-16T17:45:10;14.80;90.40
11736;DHT22;5924;51.398;7.088;2022-10-16T17:47:36;14.80;90.50
11736;DHT22;5924;51.398;7.088;2022-10-16T17:50:03;14.80;90.60
11736;DHT22;5924;51.398;7.088;2022-10-16T17:52:28;14.80;91.00
11736;DHT22;5924;51.398;7.088;2022-10-16T17:54:54;12.80;91.40
11736;DHT22;5924;51.398;7.088;2022-10-16T17:57:21;14.80;93.70
11736;DHT22;5924;51.398;7.088;2022-10-16T17:59:47;14.80;95.00
11736;DHT22;5924;51.398;7.088;2022-10-16T18:02:12;14.80;96.20
11736;DHT22;5924;51.398;7.088;2022-10-16T18:04:39;14.70;97.40
11736;DHT22;5924;51.398;7.088;2022-10-16T18:07:05;14.70;98.40
11736;DHT22;5924;51.398;7.088;2022-10-16T18:09:31;14.70;99.20
11736;DHT22;5924;51.398;7.088;2022-10-16T18:11:56;14.70;99.40
11736;DHT22;5924;51.398;7.088;2022-10-16T18:14:27;14.70;99.20
11736;DHT22;5924;51.398;7.088;2022-10-16T18:16:53;14.70;99.10
11736;DHT22;5924;51.398;7.088;2022-10-16T18:19:19;14.70;99.40
11736;DHT22;5924;51.398;7.088;2022-10-16T18:21:45;14.70;99.70